LGKO/KGS METAR and TAF weather

Enter ICAO airport designator
Station Type Date Time Source
LGKO METAR 2021/07/30 07:20 UTC NOAA

LGKO 300720Z 36012KT CAVOK 30/16 Q1007


Station Type Date Time Source
LGKO Decoded METAR 2021/07/30 07:20 UTC NOAA

Kos Airport , Greece (LGKO) 36-47N 027-04E
Jul 30, 2021 - 03:20 AM EDT / 2021.07.30 0720 UTC
Wind: from the N (360 degrees) at 14 MPH (12 KT):0
Visibility: greater than 7 mile(s):0
Temperature: 86 F (30 C)
Dew Point: 60 F (16 C)
Relative Humidity: 42%
Pressure (altimeter): 29.74 in. Hg (1007 hPa)
ob: LGKO 300720Z 36012KT CAVOK 30/16 Q1007
cycle: 7

Station Type Date Time Source
LGKO TAF 2021/07/30 06:16 UTC NOAA

TAF LGKO 300500Z 3006/3106 36015KT CAVOK
TEMPO 3012/3018 35015G25KT

Example: see airport list